MSLP - El Salvador Intl.
MSLP 050300Z 07002KT 7000 NSC 24/24 Q1011 A2985 NOSIG
Observed:
Wind:
visibility:
Flight Rules:
Cloud Levels:
Temperature:
Humidity:
Pressure: